Nearby METAR Reports

 

EGPF - Glasgow Airport, United Kingdom
Distance from station: NW 19km
Updated: 22/04/2018 16:50
Overcast
Overcast
 Wind from SW
Wind: SW 24 km/h
Temperature: 12°C
Dew Point: 6°C
Humidity: 67%
Barometer: 1003 hPa
Clouds: Overcast
Visibility: 10 km
Cloud details: Mostly cloudy 884 m
Overcast 1158 m
2018/04/22 15:50 EGPF 221550Z AUTO 22013KT 9999 BKN029 OVC038 12/06 Q1003
EGPK - Prestwick(Civ/Na, United Kingdom
Distance from station: SW 34km
Updated: 22/04/2018 16:50
Partly cloudy
Partly cloudy
 Wind from SSW
Wind: SSW 20 km/h
Temperature: 13°C
Dew Point: 6°C
Humidity: 63%
Barometer: 1003 hPa
Clouds: Partly cloudy
Visibility: 10 km
Cloud details: Few Clouds 610 m
Partly cloudy 853 m
2018/04/22 15:50 EGPK 221550Z 21011KT 9999 FEW020 SCT028 13/06 Q1003
EGPH - Edinburgh Airpor, United Kingdom
Distance from station: ENE 59km
Updated: 22/04/2018 16:50
Mostly cloudy
Mostly cloudy
 Wind from WSW
Wind: WSW 24 km/h
Temperature: 12°C
Dew Point: 6°C
Humidity: 67%
Barometer: 1003 hPa
Clouds: Mostly cloudy
Visibility: 10 km
Cloud details: Few Clouds 792 m
Mostly cloudy 1433 m
2018/04/22 15:50 EGPH 221550Z 24013KT 9999 FEW026 BKN047 12/06 Q1003